Hackettstown, NJ

8:34 PM EDT on September 30, 2016 (GMT -0400)
Snow Dog Lucy's Yard | | Change Station

Elev 988 ft 40.87 °N, 74.84 °W | Updated 12 seconds ago

Overcast
Overcast
54.9 °F
Feels Like 54.9 °F
N
0.0
Wind Variable Wind from ENE
Gusts 0.0 mph

Today
High -- | Low -- °F
--% Chance of Precip.
Yesterday
High -- | Low -- °F
Precip. -- in
Pressure 30.24 in
Visibility 6.0 miles
Clouds Overcast 1200 ft
Dew Point 54 °F
Humidity 97%
Rainfall 0.45 in
Snow Depth Not available.
6:55 AM 6:42 PM
New Moon, 0% visible
METAR KSMQ 302353Z AUTO VRB06KT 6SM BR OVC012 14/13 A3024 RMK AO2 SLP239 T01440128 10161 20144 52004
Pressure 30.24 in
Visibility 6.0 miles
Clouds Overcast 1200 ft
Dew Point 54 °F
Humidity 97%
Rainfall 0.45 in
Snow Depth Not available.
6:55 AM 6:42 PM
New Moon, 0% visible
METAR KSMQ 302353Z AUTO VRB06KT 6SM BR OVC012 14/13 A3024 RMK AO2 SLP239 T01440128 10161 20144 52004

10-Day Weather Forecast

Almanac

Astronomy

Sep. 30, 2016 Rise Set
Actual Time
Civil Twilight
Nautical Twilight
Astronomical Twilight
Moon
Length of Visible Light
Length of Day
Tomorrow will be .
, % of the Moon is Illuminated

Today's Extremes

State Highs State Lows

Community

WunderPhotos

Upload Photos

1,942,835 photos uploaded!

WunderBlog® & News

Nearby

Air Quality

  Air Quality AQ Index Pollutant
Not available.

Snow Depth

Station Depth Elevation

Earthquake Activity

City Distance Mag. Time & Date
Minimum magnitude displayed is 2.5.

Coastal Water Temperatures

Place Temperature

Stations

Nearby Weather Stations

Station Location Temp. Windchill Dew Point Humidity Wind Precip. Elev Updated Type
                   

Watches & Warnings

There are currently no watches in effect.